sensor_id;sensor_type;location;lat;lon;timestamp;P1;durP1;ratioP1;P2;durP2;ratioP2
64982;SDS011;69426;28.138;-15.436;2023-09-19T00:01:15;5.93;;;1.80;;
64982;SDS011;69426;28.138;-15.436;2023-09-19T00:03:40;3.63;;;2.80;;
64982;SDS011;69426;28.138;-15.436;2023-09-19T00:06:06;15.70;;;2.80;;
64982;SDS011;69426;28.138;-15.436;2023-09-19T00:08:32;3.95;;;2.58;;
64982;SDS011;69426;28.138;-15.436;2023-09-19T00:10:58;4.43;;;2.38;;
64982;SDS011;69426;28.138;-15.436;2023-09-19T00:13:30;2.25;;;1.85;;
64982;SDS011;69426;28.138;-15.436;2023-09-19T00:15:56;3.97;;;2.72;;
64982;SDS011;69426;28.138;-15.436;2023-09-19T00:18:23;3.72;;;2.75;;
64982;SDS011;69426;28.138;-15.436;2023-09-19T00:20:53;5.05;;;2.33;;
64982;SDS011;69426;28.138;-15.436;2023-09-19T00:23:21;2.28;;;1.75;;
64982;SDS011;69426;28.138;-15.436;2023-09-19T00:25:47;2.43;;;1.80;;
64982;SDS011;69426;28.138;-15.436;2023-09-19T00:28:12;4.28;;;2.90;;
64982;SDS011;69426;28.138;-15.436;2023-09-19T00:30:37;3.40;;;2.38;;
64982;SDS011;69426;28.138;-15.436;2023-09-19T00:33:05;2.42;;;1.88;;
64982;SDS011;69426;28.138;-15.436;2023-09-19T00:35:32;3.42;;;2.40;;
64982;SDS011;69426;28.138;-15.436;2023-09-19T00:37:58;2.85;;;1.65;;
64982;SDS011;69426;28.138;-15.436;2023-09-19T00:40:23;3.90;;;2.87;;
64982;SDS011;69426;28.138;-15.436;2023-09-19T00:42:49;3.55;;;2.08;;
64982;SDS011;69426;28.138;-15.436;2023-09-19T00:45:15;3.35;;;2.40;;
64982;SDS011;69426;28.138;-15.436;2023-09-19T00:47:42;3.00;;;1.90;;
64982;SDS011;69426;28.138;-15.436;2023-09-19T00:50:09;5.38;;;2.08;;
64982;SDS011;69426;28.138;-15.436;2023-09-19T00:52:36;4.47;;;2.60;;
64982;SDS011;69426;28.138;-15.436;2023-09-19T00:55:07;3.72;;;2.03;;
64982;SDS011;69426;28.138;-15.436;2023-09-19T00:57:33;3.65;;;1.80;;
64982;SDS011;69426;28.138;-15.436;2023-09-19T00:59:59;3.05;;;1.92;;
64982;SDS011;69426;28.138;-15.436;2023-09-19T01:02:25;5.30;;;2.85;;
64982;SDS011;69426;28.138;-15.436;2023-09-19T01:04:53;3.67;;;1.80;;
64982;SDS011;69426;28.138;-15.436;2023-09-19T01:07:19;6.13;;;2.50;;
64982;SDS011;69426;28.138;-15.436;2023-09-19T01:09:44;3.33;;;2.28;;
64982;SDS011;69426;28.138;-15.436;2023-09-19T01:12:10;4.78;;;2.95;;
64982;SDS011;69426;28.138;-15.436;2023-09-19T01:14:55;6.53;;;2.00;;
64982;SDS011;69426;28.138;-15.436;2023-09-19T01:17:35;3.00;;;2.28;;
64982;SDS011;69426;28.138;-15.436;2023-09-19T01:30:27;5.22;;;2.42;;
64982;SDS011;69426;28.138;-15.436;2023-09-19T01:32:56;4.47;;;2.40;;
64982;SDS011;69426;28.138;-15.436;2023-09-19T01:35:22;5.30;;;3.15;;
64982;SDS011;69426;28.138;-15.436;2023-09-19T01:37:47;3.47;;;2.80;;
64982;SDS011;69426;28.138;-15.436;2023-09-19T01:40:13;3.47;;;1.50;;
64982;SDS011;69426;28.138;-15.436;2023-09-19T01:47:54;2.50;;;1.70;;
64982;SDS011;69426;28.138;-15.436;2023-09-19T01:50:33;4.10;;;2.47;;
64982;SDS011;69426;28.138;-15.436;2023-09-19T01:55:36;5.38;;;2.53;;
64982;SDS011;69426;28.138;-15.436;2023-09-19T02:00:30;3.50;;;2.13;;
64982;SDS011;69426;28.138;-15.436;2023-09-19T02:02:57;2.85;;;2.17;;
64982;SDS011;69426;28.138;-15.436;2023-09-19T02:05:24;4.32;;;1.92;;
64982;SDS011;69426;28.138;-15.436;2023-09-19T02:07:49;3.03;;;1.85;;
64982;SDS011;69426;28.138;-15.436;2023-09-19T02:10:15;7.45;;;2.08;;
64982;SDS011;69426;28.138;-15.436;2023-09-19T02:12:42;2.88;;;1.73;;
64982;SDS011;69426;28.138;-15.436;2023-09-19T02:15:07;7.33;;;1.90;;
64982;SDS011;69426;28.138;-15.436;2023-09-19T02:17:33;3.25;;;1.50;;
64982;SDS011;69426;28.138;-15.436;2023-09-19T02:19:58;3.60;;;2.33;;
64982;SDS011;69426;28.138;-15.436;2023-09-19T02:22:33;2.38;;;1.92;;
64982;SDS011;69426;28.138;-15.436;2023-09-19T02:24:58;3.80;;;1.90;;
64982;SDS011;69426;28.138;-15.436;2023-09-19T02:27:25;4.22;;;2.15;;
64982;SDS011;69426;28.138;-15.436;2023-09-19T02:29:50;4.70;;;2.70;;
64982;SDS011;69426;28.138;-15.436;2023-09-19T02:32:16;3.85;;;2.25;;
64982;SDS011;69426;28.138;-15.436;2023-09-19T02:34:43;3.45;;;1.77;;
64982;SDS011;69426;28.138;-15.436;2023-09-19T02:37:09;3.03;;;2.35;;
64982;SDS011;69426;28.138;-15.436;2023-09-19T02:39:35;3.60;;;2.30;;
64982;SDS011;69426;28.138;-15.436;2023-09-19T02:42:00;4.03;;;2.50;;
64982;SDS011;69426;28.138;-15.436;2023-09-19T02:44:26;4.95;;;3.28;;
64982;SDS011;69426;28.138;-15.436;2023-09-19T02:46:52;4.93;;;2.60;;
64982;SDS011;69426;28.138;-15.436;2023-09-19T02:49:17;3.20;;;2.05;;
64982;SDS011;69426;28.138;-15.436;2023-09-19T02:51:43;3.72;;;2.17;;
64982;SDS011;69426;28.138;-15.436;2023-09-19T02:54:09;3.40;;;1.90;;
64982;SDS011;69426;28.138;-15.436;2023-09-19T02:56:34;5.50;;;2.97;;
64982;SDS011;69426;28.138;-15.436;2023-09-19T02:59:00;4.00;;;2.72;;
64982;SDS011;69426;28.138;-15.436;2023-09-19T03:01:26;2.47;;;1.80;;
64982;SDS011;69426;28.138;-15.436;2023-09-19T03:03:52;5.93;;;3.15;;
64982;SDS011;69426;28.138;-15.436;2023-09-19T03:06:18;3.22;;;2.00;;
64982;SDS011;69426;28.138;-15.436;2023-09-19T03:08:45;8.63;;;2.65;;
64982;SDS011;69426;28.138;-15.436;2023-09-19T03:11:12;3.42;;;2.47;;
64982;SDS011;69426;28.138;-15.436;2023-09-19T03:13:40;3.22;;;2.15;;
64982;SDS011;69426;28.138;-15.436;2023-09-19T03:16:06;3.40;;;2.22;;
64982;SDS011;69426;28.138;-15.436;2023-09-19T03:18:33;3.38;;;2.20;;
64982;SDS011;69426;28.138;-15.436;2023-09-19T03:20:59;3.90;;;2.45;;
64982;SDS011;69426;28.138;-15.436;2023-09-19T03:23:25;3.28;;;2.38;;
64982;SDS011;69426;28.138;-15.436;2023-09-19T03:25:51;2.30;;;1.75;;
64982;SDS011;69426;28.138;-15.436;2023-09-19T03:28:17;4.75;;;2.75;;
64982;SDS011;69426;28.138;-15.436;2023-09-19T03:30:42;3.60;;;2.03;;
64982;SDS011;69426;28.138;-15.436;2023-09-19T03:33:08;5.80;;;1.80;;
64982;SDS011;69426;28.138;-15.436;2023-09-19T03:35:35;3.30;;;1.90;;
64982;SDS011;69426;28.138;-15.436;2023-09-19T03:38:01;5.65;;;2.45;;
64982;SDS011;69426;28.138;-15.436;2023-09-19T03:40:28;3.00;;;2.13;;
64982;SDS011;69426;28.138;-15.436;2023-09-19T03:42:53;3.17;;;2.23;;
64982;SDS011;69426;28.138;-15.436;2023-09-19T03:45:18;3.63;;;2.55;;
64982;SDS011;69426;28.138;-15.436;2023-09-19T03:47:44;3.47;;;2.17;;
64982;SDS011;69426;28.138;-15.436;2023-09-19T03:50:12;4.45;;;2.88;;
64982;SDS011;69426;28.138;-15.436;2023-09-19T03:52:37;3.28;;;2.05;;
64982;SDS011;69426;28.138;-15.436;2023-09-19T03:55:02;4.73;;;2.97;;
64982;SDS011;69426;28.138;-15.436;2023-09-19T03:57:29;4.85;;;2.83;;
64982;SDS011;69426;28.138;-15.436;2023-09-19T03:59:54;3.97;;;2.47;;
64982;SDS011;69426;28.138;-15.436;2023-09-19T04:02:20;2.92;;;1.83;;
64982;SDS011;69426;28.138;-15.436;2023-09-19T04:04:49;3.85;;;2.60;;
64982;SDS011;69426;28.138;-15.436;2023-09-19T04:07:15;3.72;;;2.60;;
64982;SDS011;69426;28.138;-15.436;2023-09-19T04:09:40;5.85;;;2.70;;
64982;SDS011;69426;28.138;-15.436;2023-09-19T04:12:05;2.97;;;2.23;;
64982;SDS011;69426;28.138;-15.436;2023-09-19T04:14:33;4.25;;;2.35;;
64982;SDS011;69426;28.138;-15.436;2023-09-19T04:16:59;5.63;;;2.57;;
64982;SDS011;69426;28.138;-15.436;2023-09-19T04:19:25;4.20;;;2.53;;
64982;SDS011;69426;28.138;-15.436;2023-09-19T04:21:50;5.60;;;2.73;;
64982;SDS011;69426;28.138;-15.436;2023-09-19T04:24:15;4.13;;;2.50;;
64982;SDS011;69426;28.138;-15.436;2023-09-19T04:26:41;4.53;;;1.90;;
64982;SDS011;69426;28.138;-15.436;2023-09-19T04:29:07;5.50;;;2.50;;
64982;SDS011;69426;28.138;-15.436;2023-09-19T04:31:36;2.95;;;1.85;;
64982;SDS011;69426;28.138;-15.436;2023-09-19T04:34:02;4.95;;;2.58;;
64982;SDS011;69426;28.138;-15.436;2023-09-19T04:36:28;5.95;;;2.80;;
64982;SDS011;69426;28.138;-15.436;2023-09-19T04:38:53;7.63;;;2.37;;
64982;SDS011;69426;28.138;-15.436;2023-09-19T04:41:18;4.73;;;2.60;;
64982;SDS011;69426;28.138;-15.436;2023-09-19T04:43:44;6.40;;;2.70;;
64982;SDS011;69426;28.138;-15.436;2023-09-19T04:46:09;4.77;;;2.27;;
64982;SDS011;69426;28.138;-15.436;2023-09-19T04:48:34;5.80;;;2.17;;
64982;SDS011;69426;28.138;-15.436;2023-09-19T04:51:00;4.20;;;2.00;;
64982;SDS011;69426;28.138;-15.436;2023-09-19T04:53:25;6.95;;;2.30;;
64982;SDS011;69426;28.138;-15.436;2023-09-19T04:55:51;3.03;;;1.90;;
64982;SDS011;69426;28.138;-15.436;2023-09-19T04:58:17;3.15;;;2.00;;
64982;SDS011;69426;28.138;-15.436;2023-09-19T05:00:44;3.22;;;2.13;;
64982;SDS011;69426;28.138;-15.436;2023-09-19T05:03:09;3.87;;;1.73;;
64982;SDS011;69426;28.138;-15.436;2023-09-19T05:05:35;3.50;;;1.63;;
64982;SDS011;69426;28.138;-15.436;2023-09-19T05:08:00;7.20;;;4.05;;
64982;SDS011;69426;28.138;-15.436;2023-09-19T05:10:25;5.43;;;2.13;;
64982;SDS011;69426;28.138;-15.436;2023-09-19T05:12:54;3.97;;;1.77;;
64982;SDS011;69426;28.138;-15.436;2023-09-19T05:15:19;2.72;;;1.67;;
64982;SDS011;69426;28.138;-15.436;2023-09-19T05:17:51;5.10;;;1.95;;
64982;SDS011;69426;28.138;-15.436;2023-09-19T05:20:17;6.47;;;2.30;;
64982;SDS011;69426;28.138;-15.436;2023-09-19T05:22:50;3.20;;;2.00;;
64982;SDS011;69426;28.138;-15.436;2023-09-19T05:25:15;2.83;;;1.65;;
64982;SDS011;69426;28.138;-15.436;2023-09-19T05:27:44;2.20;;;1.55;;
64982;SDS011;69426;28.138;-15.436;2023-09-19T05:30:10;3.50;;;1.90;;
64982;SDS011;69426;28.138;-15.436;2023-09-19T05:32:35;7.88;;;2.90;;
64982;SDS011;69426;28.138;-15.436;2023-09-19T05:35:01;3.93;;;2.27;;
64982;SDS011;69426;28.138;-15.436;2023-09-19T05:37:26;3.33;;;1.80;;
64982;SDS011;69426;28.138;-15.436;2023-09-19T05:39:51;4.22;;;2.63;;
64982;SDS011;69426;28.138;-15.436;2023-09-19T05:42:18;3.25;;;1.73;;
64982;SDS011;69426;28.138;-15.436;2023-09-19T05:44:44;4.80;;;2.20;;
64982;SDS011;69426;28.138;-15.436;2023-09-19T05:47:09;3.20;;;1.60;;
64982;SDS011;69426;28.138;-15.436;2023-09-19T05:49:37;3.30;;;1.90;;
64982;SDS011;69426;28.138;-15.436;2023-09-19T05:52:06;3.78;;;2.35;;
64982;SDS011;69426;28.138;-15.436;2023-09-19T05:54:32;6.60;;;2.28;;
64982;SDS011;69426;28.138;-15.436;2023-09-19T05:56:59;4.35;;;2.25;;
64982;SDS011;69426;28.138;-15.436;2023-09-19T05:59:24;5.32;;;2.05;;
64982;SDS011;69426;28.138;-15.436;2023-09-19T06:01:49;2.50;;;1.90;;
64982;SDS011;69426;28.138;-15.436;2023-09-19T06:04:17;2.10;;;1.63;;
64982;SDS011;69426;28.138;-15.436;2023-09-19T06:06:42;3.63;;;1.98;;
64982;SDS011;69426;28.138;-15.436;2023-09-19T06:09:07;2.27;;;1.50;;
64982;SDS011;69426;28.138;-15.436;2023-09-19T06:11:34;5.55;;;2.90;;
64982;SDS011;69426;28.138;-15.436;2023-09-19T06:14:00;3.33;;;1.80;;
64982;SDS011;69426;28.138;-15.436;2023-09-19T06:16:27;5.30;;;1.85;;
64982;SDS011;69426;28.138;-15.436;2023-09-19T06:18:52;4.35;;;2.60;;
64982;SDS011;69426;28.138;-15.436;2023-09-19T06:21:18;5.87;;;1.67;;
64982;SDS011;69426;28.138;-15.436;2023-09-19T06:23:43;2.78;;;1.95;;
64982;SDS011;69426;28.138;-15.436;2023-09-19T06:26:08;3.00;;;2.40;;
64982;SDS011;69426;28.138;-15.436;2023-09-19T06:28:34;2.67;;;1.83;;
64982;SDS011;69426;28.138;-15.436;2023-09-19T06:30:59;4.93;;;2.23;;
64982;SDS011;69426;28.138;-15.436;2023-09-19T06:33:27;6.13;;;1.98;;
64982;SDS011;69426;28.138;-15.436;2023-09-19T06:35:52;5.60;;;2.20;;
64982;SDS011;69426;28.138;-15.436;2023-09-19T06:38:24;2.55;;;1.85;;
64982;SDS011;69426;28.138;-15.436;2023-09-19T06:40:49;7.45;;;1.80;;
64982;SDS011;69426;28.138;-15.436;2023-09-19T06:43:17;2.85;;;2.30;;
64982;SDS011;69426;28.138;-15.436;2023-09-19T06:45:46;3.33;;;1.90;;
64982;SDS011;69426;28.138;-15.436;2023-09-19T06:48:12;3.00;;;1.95;;
64982;SDS011;69426;28.138;-15.436;2023-09-19T06:50:37;6.10;;;1.90;;
64982;SDS011;69426;28.138;-15.436;2023-09-19T06:53:03;4.38;;;1.98;;
64982;SDS011;69426;28.138;-15.436;2023-09-19T06:55:29;3.83;;;1.50;;
64982;SDS011;69426;28.138;-15.436;2023-09-19T06:57:56;3.88;;;2.00;;
64982;SDS011;69426;28.138;-15.436;2023-09-19T07:00:21;6.50;;;1.87;;
64982;SDS011;69426;28.138;-15.436;2023-09-19T07:02:57;3.42;;;2.33;;
64982;SDS011;69426;28.138;-15.436;2023-09-19T07:05:23;9.27;;;2.97;;
64982;SDS011;69426;28.138;-15.436;2023-09-19T07:07:49;4.43;;;2.70;;
64982;SDS011;69426;28.138;-15.436;2023-09-19T07:10:14;7.53;;;3.15;;
64982;SDS011;69426;28.138;-15.436;2023-09-19T07:12:39;6.33;;;3.20;;
64982;SDS011;69426;28.138;-15.436;2023-09-19T07:15:06;7.53;;;3.50;;
64982;SDS011;69426;28.138;-15.436;2023-09-19T07:17:31;8.05;;;4.00;;
64982;SDS011;69426;28.138;-15.436;2023-09-19T07:19:58;7.63;;;4.15;;
64982;SDS011;69426;28.138;-15.436;2023-09-19T07:22:23;9.38;;;4.43;;
64982;SDS011;69426;28.138;-15.436;2023-09-19T07:24:49;9.80;;;4.30;;
64982;SDS011;69426;28.138;-15.436;2023-09-19T07:27:14;7.05;;;4.20;;
64982;SDS011;69426;28.138;-15.436;2023-09-19T07:29:39;8.40;;;4.37;;
64982;SDS011;69426;28.138;-15.436;2023-09-19T07:32:04;8.10;;;4.17;;
64982;SDS011;69426;28.138;-15.436;2023-09-19T07:34:31;13.85;;;4.30;;
64982;SDS011;69426;28.138;-15.436;2023-09-19T07:36:56;7.57;;;4.47;;
64982;SDS011;69426;28.138;-15.436;2023-09-19T07:39:21;15.60;;;5.47;;
64982;SDS011;69426;28.138;-15.436;2023-09-19T07:41:47;10.03;;;4.60;;
64982;SDS011;69426;28.138;-15.436;2023-09-19T07:44:13;8.57;;;4.85;;
64982;SDS011;69426;28.138;-15.436;2023-09-19T07:46:39;12.18;;;4.68;;
64982;SDS011;69426;28.138;-15.436;2023-09-19T07:49:04;15.93;;;5.23;;
64982;SDS011;69426;28.138;-15.436;2023-09-19T07:51:30;10.27;;;4.97;;
64982;SDS011;69426;28.138;-15.436;2023-09-19T07:53:55;10.50;;;5.00;;
64982;SDS011;69426;28.138;-15.436;2023-09-19T07:56:21;8.00;;;4.93;;
64982;SDS011;69426;28.138;-15.436;2023-09-19T07:58:47;10.63;;;5.18;;
64982;SDS011;69426;28.138;-15.436;2023-09-19T08:01:12;11.17;;;5.80;;
64982;SDS011;69426;28.138;-15.436;2023-09-19T08:03:38;12.27;;;5.25;;
64982;SDS011;69426;28.138;-15.436;2023-09-19T08:06:05;8.23;;;4.90;;
64982;SDS011;69426;28.138;-15.436;2023-09-19T08:08:32;11.18;;;5.60;;
64982;SDS011;69426;28.138;-15.436;2023-09-19T08:10:57;8.57;;;5.18;;
64982;SDS011;69426;28.138;-15.436;2023-09-19T08:13:25;11.45;;;5.22;;
64982;SDS011;69426;28.138;-15.436;2023-09-19T08:15:51;7.63;;;4.97;;
64982;SDS011;69426;28.138;-15.436;2023-09-19T08:18:18;11.27;;;5.03;;
64982;SDS011;69426;28.138;-15.436;2023-09-19T08:20:48;9.27;;;5.20;;
64982;SDS011;69426;28.138;-15.436;2023-09-19T08:23:13;10.20;;;5.05;;
64982;SDS011;69426;28.138;-15.436;2023-09-19T08:25:39;12.07;;;5.37;;
64982;SDS011;69426;28.138;-15.436;2023-09-19T08:28:05;12.18;;;5.40;;
64982;SDS011;69426;28.138;-15.436;2023-09-19T08:30:33;8.02;;;5.35;;
64982;SDS011;69426;28.138;-15.436;2023-09-19T08:33:00;7.13;;;5.10;;
64982;SDS011;69426;28.138;-15.436;2023-09-19T08:35:25;15.07;;;5.30;;
64982;SDS011;69426;28.138;-15.436;2023-09-19T08:37:50;9.95;;;4.90;;
64982;SDS011;69426;28.138;-15.436;2023-09-19T08:40:16;8.75;;;5.28;;
64982;SDS011;69426;28.138;-15.436;2023-09-19T08:45:14;10.80;;;5.30;;
64982;SDS011;69426;28.138;-15.436;2023-09-19T08:47:42;7.93;;;4.95;;
64982;SDS011;69426;28.138;-15.436;2023-09-19T08:50:22;9.68;;;5.03;;
64982;SDS011;69426;28.138;-15.436;2023-09-19T08:52:49;13.93;;;5.45;;
64982;SDS011;69426;28.138;-15.436;2023-09-19T08:55:16;14.50;;;5.38;;
64982;SDS011;69426;28.138;-15.436;2023-09-19T08:57:46;18.27;;;5.47;;
64982;SDS011;69426;28.138;-15.436;2023-09-19T09:00:14;10.30;;;5.35;;
64982;SDS011;69426;28.138;-15.436;2023-09-19T09:02:42;17.85;;;5.90;;
64982;SDS011;69426;28.138;-15.436;2023-09-19T09:05:08;19.08;;;5.88;;
64982;SDS011;69426;28.138;-15.436;2023-09-19T09:07:34;16.73;;;5.32;;
64982;SDS011;69426;28.138;-15.436;2023-09-19T09:10:02;17.67;;;5.75;;
64982;SDS011;69426;28.138;-15.436;2023-09-19T09:12:27;13.55;;;5.43;;
64982;SDS011;69426;28.138;-15.436;2023-09-19T09:14:54;12.57;;;5.70;;
64982;SDS011;69426;28.138;-15.436;2023-09-19T09:17:19;11.83;;;5.83;;
64982;SDS011;69426;28.138;-15.436;2023-09-19T09:19:45;10.25;;;5.47;;
64982;SDS011;69426;28.138;-15.436;2023-09-19T09:22:11;13.73;;;5.63;;
64982;SDS011;69426;28.138;-15.436;2023-09-19T09:24:37;11.35;;;5.88;;
64982;SDS011;69426;28.138;-15.436;2023-09-19T09:27:04;10.10;;;5.80;;
64982;SDS011;69426;28.138;-15.436;2023-09-19T09:29:42;10.90;;;5.78;;
64982;SDS011;69426;28.138;-15.436;2023-09-19T09:34:53;16.38;;;5.43;;
64982;SDS011;69426;28.138;-15.436;2023-09-19T09:37:18;11.23;;;5.40;;
64982;SDS011;69426;28.138;-15.436;2023-09-19T09:39:50;13.77;;;5.93;;
64982;SDS011;69426;28.138;-15.436;2023-09-19T09:42:35;13.00;;;5.35;;
64982;SDS011;69426;28.138;-15.436;2023-09-19T09:47:41;7.82;;;5.28;;
64982;SDS011;69426;28.138;-15.436;2023-09-19T09:50:07;13.55;;;5.68;;
64982;SDS011;69426;28.138;-15.436;2023-09-19T09:52:45;10.18;;;6.05;;
64982;SDS011;69426;28.138;-15.436;2023-09-19T09:55:11;8.85;;;5.57;;
64982;SDS011;69426;28.138;-15.436;2023-09-19T09:57:37;9.32;;;5.63;;
64982;SDS011;69426;28.138;-15.436;2023-09-19T10:00:06;11.85;;;5.97;;
64982;SDS011;69426;28.138;-15.436;2023-09-19T10:02:38;11.82;;;5.68;;
64982;SDS011;69426;28.138;-15.436;2023-09-19T10:05:12;15.13;;;5.53;;
64982;SDS011;69426;28.138;-15.436;2023-09-19T10:07:54;10.50;;;5.88;;
64982;SDS011;69426;28.138;-15.436;2023-09-19T10:10:32;8.85;;;5.60;;
64982;SDS011;69426;28.138;-15.436;2023-09-19T10:13:09;13.27;;;5.80;;
64982;SDS011;69426;28.138;-15.436;2023-09-19T10:15:38;11.32;;;5.93;;
64982;SDS011;69426;28.138;-15.436;2023-09-19T10:18:07;8.82;;;5.90;;
64982;SDS011;69426;28.138;-15.436;2023-09-19T10:20:36;15.20;;;5.78;;
64982;SDS011;69426;28.138;-15.436;2023-09-19T10:23:07;11.85;;;5.78;;
64982;SDS011;69426;28.138;-15.436;2023-09-19T10:25:36;8.88;;;5.55;;
64982;SDS011;69426;28.138;-15.436;2023-09-19T10:28:02;11.18;;;5.70;;
64982;SDS011;69426;28.138;-15.436;2023-09-19T10:30:35;10.48;;;5.72;;
64982;SDS011;69426;28.138;-15.436;2023-09-19T10:33:02;10.68;;;5.97;;
64982;SDS011;69426;28.138;-15.436;2023-09-19T10:35:28;10.52;;;5.80;;
64982;SDS011;69426;28.138;-15.436;2023-09-19T10:37:57;11.20;;;5.47;;
64982;SDS011;69426;28.138;-15.436;2023-09-19T10:40:24;10.93;;;5.50;;
64982;SDS011;69426;28.138;-15.436;2023-09-19T10:42:56;11.15;;;5.43;;
64982;SDS011;69426;28.138;-15.436;2023-09-19T10:45:25;8.25;;;5.57;;
64982;SDS011;69426;28.138;-15.436;2023-09-19T10:47:51;16.80;;;5.82;;
64982;SDS011;69426;28.138;-15.436;2023-09-19T10:50:20;13.68;;;5.47;;
64982;SDS011;69426;28.138;-15.436;2023-09-19T10:52:52;13.10;;;5.85;;
64982;SDS011;69426;28.138;-15.436;2023-09-19T10:55:25;23.05;;;5.88;;
64982;SDS011;69426;28.138;-15.436;2023-09-19T10:57:53;13.10;;;5.90;;
64982;SDS011;69426;28.138;-15.436;2023-09-19T11:00:18;10.68;;;5.85;;
64982;SDS011;69426;28.138;-15.436;2023-09-19T11:05:36;12.80;;;5.40;;
64982;SDS011;69426;28.138;-15.436;2023-09-19T11:08:08;12.10;;;5.15;;
64982;SDS011;69426;28.138;-15.436;2023-09-19T11:10:44;11.73;;;5.32;;
64982;SDS011;69426;28.138;-15.436;2023-09-19T11:13:23;11.80;;;5.68;;
64982;SDS011;69426;28.138;-15.436;2023-09-19T11:26:50;26.05;;;6.57;;
64982;SDS011;69426;28.138;-15.436;2023-09-19T11:29:26;15.10;;;5.97;;
64982;SDS011;69426;28.138;-15.436;2023-09-19T11:31:53;16.33;;;6.13;;
64982;SDS011;69426;28.138;-15.436;2023-09-19T11:37:01;12.50;;;5.80;;
64982;SDS011;69426;28.138;-15.436;2023-09-19T11:39:29;17.52;;;6.40;;
64982;SDS011;69426;28.138;-15.436;2023-09-19T11:41:54;12.55;;;5.65;;
64982;SDS011;69426;28.138;-15.436;2023-09-19T11:44:31;13.10;;;5.72;;
64982;SDS011;69426;28.138;-15.436;2023-09-19T11:46:58;12.70;;;6.15;;
64982;SDS011;69426;28.138;-15.436;2023-09-19T11:49:33;16.17;;;6.20;;
64982;SDS011;69426;28.138;-15.436;2023-09-19T11:52:00;11.55;;;5.47;;
64982;SDS011;69426;28.138;-15.436;2023-09-19T11:54:33;12.40;;;5.53;;
64982;SDS011;69426;28.138;-15.436;2023-09-19T11:56:59;9.73;;;5.70;;
64982;SDS011;69426;28.138;-15.436;2023-09-19T12:02:06;11.63;;;5.82;;
64982;SDS011;69426;28.138;-15.436;2023-09-19T12:06:58;12.77;;;5.40;;
64982;SDS011;69426;28.138;-15.436;2023-09-19T12:09:24;11.88;;;5.75;;
64982;SDS011;69426;28.138;-15.436;2023-09-19T12:11:50;10.25;;;5.75;;
64982;SDS011;69426;28.138;-15.436;2023-09-19T12:14:25;8.93;;;5.60;;
64982;SDS011;69426;28.138;-15.436;2023-09-19T12:16:54;10.68;;;5.28;;
64982;SDS011;69426;28.138;-15.436;2023-09-19T12:19:21;19.65;;;5.70;;
64982;SDS011;69426;28.138;-15.436;2023-09-19T12:24:39;9.15;;;5.20;;
64982;SDS011;69426;28.138;-15.436;2023-09-19T12:27:07;15.23;;;5.32;;
64982;SDS011;69426;28.138;-15.436;2023-09-19T12:29:48;11.52;;;5.57;;
64982;SDS011;69426;28.138;-15.436;2023-09-19T12:32:34;11.68;;;5.45;;
64982;SDS011;69426;28.138;-15.436;2023-09-19T12:34:59;15.52;;;6.00;;
64982;SDS011;69426;28.138;-15.436;2023-09-19T12:37:24;9.40;;;5.40;;
64982;SDS011;69426;28.138;-15.436;2023-09-19T12:40:03;10.52;;;5.47;;
64982;SDS011;69426;28.138;-15.436;2023-09-19T12:42:39;13.07;;;5.53;;
64982;SDS011;69426;28.138;-15.436;2023-09-19T12:45:06;8.88;;;5.30;;
64982;SDS011;69426;28.138;-15.436;2023-09-19T12:47:34;17.73;;;5.75;;
64982;SDS011;69426;28.138;-15.436;2023-09-19T12:54:57;10.45;;;5.53;;
64982;SDS011;69426;28.138;-15.436;2023-09-19T12:57:23;9.47;;;5.57;;
64982;SDS011;69426;28.138;-15.436;2023-09-19T12:59:51;10.30;;;5.68;;
64982;SDS011;69426;28.138;-15.436;2023-09-19T13:02:17;13.02;;;6.00;;
64982;SDS011;69426;28.138;-15.436;2023-09-19T13:04:51;12.30;;;6.00;;
64982;SDS011;69426;28.138;-15.436;2023-09-19T13:10:04;12.07;;;5.55;;
64982;SDS011;69426;28.138;-15.436;2023-09-19T13:12:36;9.43;;;5.70;;
64982;SDS011;69426;28.138;-15.436;2023-09-19T13:15:10;13.27;;;5.82;;
64982;SDS011;69426;28.138;-15.436;2023-09-19T13:17:50;8.10;;;5.18;;
64982;SDS011;69426;28.138;-15.436;2023-09-19T13:20:24;9.35;;;5.45;;
64982;SDS011;69426;28.138;-15.436;2023-09-19T13:22:52;12.38;;;5.95;;
64982;SDS011;69426;28.138;-15.436;2023-09-19T13:25:20;10.45;;;5.55;;
64982;SDS011;69426;28.138;-15.436;2023-09-19T13:27:46;14.18;;;5.57;;
64982;SDS011;69426;28.138;-15.436;2023-09-19T13:30:13;9.13;;;5.72;;
64982;SDS011;69426;28.138;-15.436;2023-09-19T13:32:38;8.25;;;5.18;;
64982;SDS011;69426;28.138;-15.436;2023-09-19T13:35:05;9.00;;;5.65;;
64982;SDS011;69426;28.138;-15.436;2023-09-19T13:37:33;15.05;;;5.30;;
64982;SDS011;69426;28.138;-15.436;2023-09-19T13:40:00;13.55;;;5.88;;
64982;SDS011;69426;28.138;-15.436;2023-09-19T13:42:26;12.05;;;5.70;;
64982;SDS011;69426;28.138;-15.436;2023-09-19T13:44:54;9.40;;;5.63;;
64982;SDS011;69426;28.138;-15.436;2023-09-19T13:47:20;9.55;;;5.53;;
64982;SDS011;69426;28.138;-15.436;2023-09-19T13:49:49;7.78;;;5.72;;
64982;SDS011;69426;28.138;-15.436;2023-09-19T13:52:15;10.35;;;5.70;;
64982;SDS011;69426;28.138;-15.436;2023-09-19T13:54:41;9.70;;;5.70;;
64982;SDS011;69426;28.138;-15.436;2023-09-19T13:57:06;12.50;;;5.77;;
64982;SDS011;69426;28.138;-15.436;2023-09-19T13:59:32;13.80;;;5.63;;
64982;SDS011;69426;28.138;-15.436;2023-09-19T14:01:57;9.73;;;5.50;;
64982;SDS011;69426;28.138;-15.436;2023-09-19T14:04:22;11.03;;;5.50;;
64982;SDS011;69426;28.138;-15.436;2023-09-19T14:06:48;7.00;;;5.20;;
64982;SDS011;69426;28.138;-15.436;2023-09-19T14:09:13;10.10;;;5.70;;
64982;SDS011;69426;28.138;-15.436;2023-09-19T14:11:39;9.10;;;5.40;;
64982;SDS011;69426;28.138;-15.436;2023-09-19T14:14:04;11.73;;;5.82;;
64982;SDS011;69426;28.138;-15.436;2023-09-19T14:16:30;13.23;;;5.80;;
64982;SDS011;69426;28.138;-15.436;2023-09-19T14:18:56;9.32;;;5.40;;
64982;SDS011;69426;28.138;-15.436;2023-09-19T14:21:21;11.45;;;5.90;;
64982;SDS011;69426;28.138;-15.436;2023-09-19T14:23:46;13.87;;;5.90;;
64982;SDS011;69426;28.138;-15.436;2023-09-19T14:26:13;10.32;;;5.70;;
64982;SDS011;69426;28.138;-15.436;2023-09-19T14:28:38;12.52;;;6.38;;
64982;SDS011;69426;28.138;-15.436;2023-09-19T14:31:04;10.30;;;5.70;;
64982;SDS011;69426;28.138;-15.436;2023-09-19T14:33:31;12.50;;;5.47;;
64982;SDS011;69426;28.138;-15.436;2023-09-19T14:35:56;13.77;;;6.40;;
64982;SDS011;69426;28.138;-15.436;2023-09-19T14:38:21;10.18;;;5.75;;
64982;SDS011;69426;28.138;-15.436;2023-09-19T14:40:47;18.40;;;5.93;;
64982;SDS011;69426;28.138;-15.436;2023-09-19T14:43:15;15.23;;;6.18;;
64982;SDS011;69426;28.138;-15.436;2023-09-19T14:45:40;14.03;;;5.57;;
64982;SDS011;69426;28.138;-15.436;2023-09-19T14:48:05;10.40;;;6.32;;
64982;SDS011;69426;28.138;-15.436;2023-09-19T14:50:31;11.80;;;5.65;;
64982;SDS011;69426;28.138;-15.436;2023-09-19T14:52:56;11.00;;;5.88;;
64982;SDS011;69426;28.138;-15.436;2023-09-19T14:55:21;12.45;;;6.00;;
64982;SDS011;69426;28.138;-15.436;2023-09-19T14:57:51;13.88;;;5.70;;
64982;SDS011;69426;28.138;-15.436;2023-09-19T15:00:17;8.10;;;5.38;;
64982;SDS011;69426;28.138;-15.436;2023-09-19T15:02:44;12.27;;;6.20;;
64982;SDS011;69426;28.138;-15.436;2023-09-19T15:05:10;9.68;;;6.03;;
64982;SDS011;69426;28.138;-15.436;2023-09-19T15:07:36;10.50;;;5.63;;
64982;SDS011;69426;28.138;-15.436;2023-09-19T15:10:05;12.77;;;5.72;;
64982;SDS011;69426;28.138;-15.436;2023-09-19T15:12:32;9.13;;;5.57;;
64982;SDS011;69426;28.138;-15.436;2023-09-19T15:14:58;13.27;;;5.93;;
64982;SDS011;69426;28.138;-15.436;2023-09-19T15:17:23;10.77;;;6.50;;